createdAt,value
2019-03-04T00:02:18.880Z,98509.63
2019-03-04T00:04:47.751Z,98493.81
2019-03-04T00:07:16.729Z,98490.31
2019-03-04T00:09:45.988Z,98487.58
2019-03-04T00:12:14.988Z,98480.98
2019-03-04T00:14:43.994Z,98481.95
2019-03-04T00:17:12.906Z,98489.36
2019-03-04T00:19:41.824Z,98486.26
2019-03-04T00:22:10.912Z,98497.27
2019-03-04T00:24:39.734Z,98494.63
2019-03-04T00:27:08.746Z,98500.76
2019-03-04T00:29:37.938Z,98509.02
2019-03-04T00:32:07.213Z,98510.84
2019-03-04T00:34:36.247Z,98530.61
2019-03-04T00:37:05.227Z,98516.11
2019-03-04T00:39:34.199Z,98536.34
2019-03-04T00:42:03.219Z,98515.16
2019-03-04T00:44:32.155Z,98521.38
2019-03-04T00:47:02.061Z,98510.34
2019-03-04T00:49:31.985Z,98519.95
2019-03-04T00:52:01.512Z,98521.27
2019-03-04T00:54:30.444Z,98509.41
2019-03-04T00:56:59.317Z,98516.47
2019-03-04T00:59:28.310Z,98517.79
2019-03-04T01:01:57.259Z,98514.69
2019-03-04T01:04:26.283Z,98502.83
2019-03-04T01:06:55.290Z,98499.23
2019-03-04T01:09:24.303Z,98493.09
2019-03-04T01:11:53.339Z,98491.31
2019-03-04T01:14:22.311Z,98492.64
2019-03-04T01:16:51.420Z,98478.99
2019-03-04T01:19:20.298Z,98469.77
2019-03-04T01:21:49.301Z,98462.67
2019-03-04T01:24:18.249Z,98462.67
2019-03-04T01:26:47.066Z,98450.45
2019-03-04T01:29:15.970Z,98439.45
2019-03-04T01:31:44.976Z,98424.45
2019-03-04T01:34:13.950Z,98409.59
2019-03-04T01:36:42.966Z,98405.17
2019-03-04T01:39:11.833Z,98412.59
2019-03-04T01:41:40.868Z,98398.09
2019-03-04T01:44:09.780Z,98381.91
2019-03-04T01:46:38.734Z,98378.31
2019-03-04T01:49:07.576Z,98387.08
2019-03-04T01:51:36.568Z,98369.59
2019-03-04T01:54:05.600Z,98362.03
2019-03-04T01:56:34.665Z,98366.45
2019-03-04T01:59:03.655Z,98356.41
2019-03-04T02:01:32.632Z,98353.27
2019-03-04T02:04:02.461Z,98359.86
2019-03-04T02:06:31.503Z,98356.77
2019-03-04T02:09:00.634Z,98334.82
2019-03-04T02:11:29.635Z,98318.19
2019-03-04T02:13:58.617Z,98320.32
2019-03-04T02:16:27.674Z,98311.95
2019-03-04T02:18:56.711Z,98305.71
2019-03-04T02:21:25.724Z,98307.14
2019-03-04T02:23:54.597Z,98305.83
2019-03-04T02:26:28.991Z,98300.44
2019-03-04T02:28:57.821Z,98293.50
2019-03-04T02:31:26.690Z,98300.55
2019-03-04T02:33:55.662Z,98296.13
2019-03-04T02:36:24.541Z,98304.89
2019-03-04T02:38:53.681Z,98305.71
2019-03-04T02:41:22.461Z,98291.70
2019-03-04T02:43:51.335Z,98286.44
2019-03-04T02:46:20.289Z,98276.83
2019-03-04T02:48:49.376Z,98280.31
2019-03-04T02:51:18.272Z,98267.48
2019-03-04T02:53:47.178Z,98260.08
2019-03-04T02:56:36.901Z,98238.98
2019-03-04T02:59:05.733Z,98225.69
2019-03-04T03:01:34.831Z,98209.60
2019-03-04T03:04:03.900Z,98204.33
2019-03-04T03:06:32.950Z,98213.95
2019-03-04T03:09:01.913Z,98211.31
2019-03-04T03:11:30.990Z,98206.03
2019-03-04T03:13:59.971Z,98165.17
2019-03-04T03:16:28.996Z,98173.55
2019-03-04T03:18:57.961Z,98164.33
2019-03-04T03:21:26.975Z,98164.21
2019-03-04T03:23:59.024Z,98142.77
2019-03-04T03:26:26.875Z,98127.89
2019-03-04T03:28:55.800Z,98140.95
2019-03-04T03:31:25.275Z,98109.81
2019-03-04T03:33:54.102Z,98137.61
2019-03-04T03:36:23.085Z,98148.27
2019-03-04T03:38:52.020Z,98134.86
2019-03-04T03:41:21.065Z,98132.69
2019-03-04T03:43:50.174Z,98117.34
2019-03-04T03:46:19.109Z,98115.20
2019-03-04T03:48:48.145Z,98106.33
2019-03-04T03:51:17.193Z,98096.26
2019-03-04T03:53:46.173Z,98098.89
2019-03-04T03:56:15.162Z,98101.06
2019-03-04T03:58:44.171Z,98101.91
2019-03-04T04:01:13.255Z,98099.73
2019-03-04T04:03:42.224Z,98099.73
2019-03-04T04:06:11.250Z,98101.06
2019-03-04T04:08:40.226Z,98097.95
2019-03-04T04:11:09.248Z,98094.47
2019-03-04T04:13:38.354Z,98088.23
2019-03-04T04:16:07.292Z,98072.18
2019-03-04T04:18:36.335Z,98075.55
2019-03-04T04:21:05.316Z,98058.88
2019-03-04T04:23:34.317Z,98056.25
2019-03-04T04:26:04.817Z,98032.98
2019-03-04T04:28:34.038Z,98033.84
2019-03-04T04:31:03.269Z,98023.77
2019-03-04T04:33:32.386Z,98017.17
2019-03-04T04:36:01.405Z,97997.05
2019-03-04T04:38:30.416Z,97986.52
2019-03-04T04:40:59.449Z,97975.00
2019-03-04T04:43:28.476Z,97972.36
2019-03-04T04:45:57.413Z,97955.73
2019-03-04T04:48:26.460Z,97940.39
2019-03-04T04:53:43.390Z,97950.93
2019-03-04T04:56:12.520Z,97925.05
2019-03-04T04:58:41.508Z,97936.43
2019-03-04T05:01:10.391Z,97927.20
2019-03-04T05:03:39.422Z,97903.14
2019-03-04T05:06:08.329Z,97879.77
2019-03-04T05:08:37.394Z,97874.02
2019-03-04T05:11:06.263Z,97895.11
2019-03-04T05:13:35.275Z,97889.34
2019-03-04T05:16:04.281Z,97881.93
2019-03-04T05:18:33.546Z,97849.80
2019-03-04T05:21:02.395Z,97856.51
2019-03-04T05:23:31.720Z,97821.19
2019-03-04T05:26:00.637Z,97810.02
2019-03-04T05:28:29.675Z,97782.34
2019-03-04T05:30:58.660Z,97772.64
2019-03-04T05:33:27.608Z,97772.52
2019-03-04T05:35:56.715Z,97784.60
2019-03-04T05:38:25.679Z,97778.27
2019-03-04T05:40:54.719Z,97791.45
2019-03-04T05:43:23.731Z,97791.55
2019-03-04T05:45:52.806Z,97783.98
2019-03-04T05:48:21.835Z,97775.13
2019-03-04T05:50:50.809Z,97775.83
2019-03-04T05:53:19.816Z,97752.25
2019-03-04T05:55:48.833Z,97759.31
2019-03-04T05:58:17.893Z,97752.73
2019-03-04T06:00:46.985Z,97758.34
2019-03-04T06:03:17.393Z,97746.73
2019-03-04T06:05:45.584Z,97741.80
2019-03-04T06:08:14.470Z,97723.00
2019-03-04T06:10:43.415Z,97728.84
2019-03-04T06:13:14.324Z,97734.36
2019-03-04T06:15:43.165Z,97720.92
2019-03-04T06:18:12.034Z,97734.92
2019-03-04T06:20:40.933Z,97732.16
2019-03-04T06:23:09.994Z,97713.94
2019-03-04T06:25:38.900Z,97723.39
2019-03-04T06:28:07.824Z,97701.31
2019-03-04T06:30:36.695Z,97707.44
2019-03-04T06:33:05.963Z,97693.27
2019-03-04T06:35:34.949Z,97684.55
2019-03-04T06:38:04.096Z,97689.19
2019-03-04T06:40:33.069Z,97688.12
2019-03-04T06:43:02.153Z,97674.67
2019-03-04T06:45:31.966Z,97668.16
2019-03-04T06:48:00.988Z,97671.39
2019-03-04T06:50:50.051Z,97681.81
2019-03-04T06:53:41.493Z,97662.10
2019-03-04T06:56:30.076Z,97658.99
2019-03-04T06:59:09.405Z,97657.03
2019-03-04T07:01:42.897Z,97651.37
2019-03-04T07:04:26.328Z,97660.72
2019-03-04T07:06:55.259Z,97653.34
2019-03-04T07:09:24.632Z,97650.45
2019-03-04T07:11:54.457Z,97627.02
2019-03-04T07:14:23.295Z,97622.84
2019-03-04T07:16:53.153Z,97632.55
2019-03-04T07:19:23.572Z,97617.95
2019-03-04T07:21:51.667Z,97597.11
2019-03-04T07:24:20.525Z,97640.28
2019-03-04T07:26:49.527Z,97599.95
2019-03-04T07:29:18.330Z,97593.80
2019-03-04T07:31:47.296Z,97575.25
2019-03-04T07:34:16.371Z,97582.05
2019-03-04T07:36:45.576Z,97568.45
2019-03-04T07:39:16.047Z,97562.99
2019-03-04T07:41:45.012Z,97559.23
2019-03-04T07:44:13.906Z,97557.03
2019-03-04T07:46:42.778Z,97557.64
2019-03-04T07:49:11.776Z,97541.19
2019-03-04T07:51:40.787Z,97551.10
2019-03-04T07:54:09.818Z,97562.78
2019-03-04T07:56:38.843Z,97602.88
2019-03-04T07:59:07.684Z,97676.62
2019-03-04T08:01:36.527Z,97740.84
2019-03-04T08:04:05.406Z,97770.71
2019-03-04T08:06:34.188Z,97798.69
2019-03-04T08:09:56.648Z,97803.25
2019-03-04T08:13:12.815Z,97797.23
2019-03-04T08:16:02.507Z,97815.14
2019-03-04T08:18:31.787Z,97828.34
2019-03-04T08:21:00.721Z,97817.83
2019-03-04T08:23:29.576Z,97810.98
2019-03-04T08:25:58.631Z,97816.50
2019-03-04T08:28:27.632Z,97810.77
2019-03-04T08:30:56.613Z,97785.55
2019-03-04T08:33:25.607Z,97767.25
2019-03-04T08:35:54.622Z,97778.61
2019-03-04T08:38:23.681Z,97766.62
2019-03-04T08:40:52.636Z,97753.27
2019-03-04T08:43:21.648Z,97745.16
2019-03-04T08:45:50.694Z,97758.81
2019-03-04T08:48:19.656Z,97760.00
2019-03-04T08:50:48.702Z,97753.63
2019-03-04T08:53:19.969Z,97747.81
2019-03-04T08:55:48.824Z,97742.63
2019-03-04T08:58:17.713Z,97743.81
2019-03-04T09:00:46.738Z,97743.27
2019-03-04T09:03:15.741Z,97738.67
2019-03-04T09:05:44.684Z,97739.17
2019-03-04T09:08:13.780Z,97745.92
2019-03-04T09:10:42.813Z,97749.88
2019-03-04T09:13:11.788Z,97765.23
2019-03-04T09:15:40.801Z,97748.77
2019-03-04T09:18:09.881Z,97734.23
2019-03-04T09:20:38.871Z,97732.16
2019-03-04T09:23:07.773Z,97733.55
2019-03-04T09:25:45.818Z,97740.49
2019-03-04T09:28:14.666Z,97740.22
2019-03-04T09:30:43.909Z,97717.06
2019-03-04T09:33:12.900Z,97729.83
2019-03-04T09:35:41.983Z,97721.34
2019-03-04T09:38:10.922Z,97737.84
2019-03-04T09:40:39.858Z,97702.34
2019-03-04T09:43:08.977Z,97721.40
2019-03-04T09:45:39.385Z,97699.47
2019-03-04T09:48:08.424Z,97696.41
2019-03-04T09:50:37.453Z,97708.12
2019-03-04T09:53:06.424Z,97699.81
2019-03-04T09:55:35.449Z,97683.59
2019-03-04T09:58:04.580Z,97695.42
2019-03-04T10:00:36.442Z,97718.34
2019-03-04T10:03:27.582Z,97691.11
2019-03-04T10:06:32.478Z,97703.98
2019-03-04T10:09:32.302Z,97696.23
2019-03-04T10:12:15.986Z,97694.77
2019-03-04T10:15:09.125Z,97707.52
2019-03-04T10:17:53.150Z,97708.00
2019-03-04T10:20:38.051Z,97699.58
2019-03-04T10:23:31.200Z,97704.02
2019-03-04T10:26:21.918Z,97715.59
2019-03-04T10:29:21.408Z,97701.70
2019-03-04T10:32:39.437Z,97721.23
2019-03-04T10:35:34.318Z,97749.64
2019-03-04T10:38:42.974Z,97720.89
2019-03-04T10:42:03.750Z,97733.23
2019-03-04T10:44:50.300Z,97720.89
2019-03-04T10:47:19.225Z,97716.78
2019-03-04T10:49:48.231Z,97708.93
2019-03-04T10:52:17.308Z,97723.77
2019-03-04T10:54:46.292Z,97708.03
2019-03-04T10:57:15.314Z,97708.98
2019-03-04T10:59:44.297Z,97701.98
2019-03-04T11:02:13.329Z,97705.58
2019-03-04T11:04:42.561Z,97699.25
2019-03-04T11:07:11.461Z,97710.77
2019-03-04T11:09:40.395Z,97717.38
2019-03-04T11:12:09.458Z,97697.16
2019-03-04T11:14:38.382Z,97716.20
2019-03-04T11:17:07.404Z,97712.37
2019-03-04T11:19:36.434Z,97687.38
2019-03-04T11:22:05.404Z,97712.98
2019-03-04T11:24:34.333Z,97731.50
2019-03-04T11:27:03.210Z,97743.69
2019-03-04T11:29:32.255Z,97742.84
2019-03-04T11:32:01.355Z,97744.81
2019-03-04T11:34:30.271Z,97733.05
2019-03-04T11:36:59.502Z,97749.53
2019-03-04T11:39:47.635Z,97748.21
2019-03-04T11:42:16.587Z,97754.48
2019-03-04T11:44:45.470Z,97754.77
2019-03-04T11:47:14.357Z,97737.05
2019-03-04T11:49:43.388Z,97734.25
2019-03-04T11:52:12.463Z,97745.31
2019-03-04T11:54:41.628Z,97728.46
2019-03-04T11:57:11.516Z,97725.61
2019-03-04T11:59:43.307Z,97710.87
2019-03-04T12:02:18.708Z,97707.77
2019-03-04T12:04:47.720Z,97707.08
2019-03-04T12:07:16.876Z,97707.42
2019-03-04T12:09:48.737Z,97700.31
2019-03-04T12:12:17.746Z,97698.57
2019-03-04T12:14:46.637Z,97692.72
2019-03-04T12:17:17.201Z,97689.03
2019-03-04T12:19:46.129Z,97694.52
2019-03-04T12:22:35.752Z,97690.83
2019-03-04T12:25:05.640Z,97685.39
2019-03-04T12:27:34.510Z,97676.33
2019-03-04T12:30:04.063Z,97667.39
2019-03-04T12:32:34.738Z,97671.66
2019-03-04T12:35:05.714Z,97676.66
2019-03-04T12:37:34.927Z,97679.11
2019-03-04T12:40:04.125Z,97660.35
2019-03-04T12:42:33.045Z,97689.27
2019-03-04T12:45:01.942Z,97685.64
2019-03-04T12:47:30.932Z,97684.54
2019-03-04T12:49:59.866Z,97692.63
2019-03-04T12:52:28.919Z,97710.16
2019-03-04T12:54:57.802Z,97722.36
2019-03-04T12:57:26.757Z,97752.47
2019-03-04T12:59:55.719Z,97769.30
2019-03-04T13:02:24.702Z,97791.32
2019-03-04T13:04:53.734Z,97820.30
2019-03-04T13:07:22.729Z,97826.20
2019-03-04T13:09:51.985Z,97827.19
2019-03-04T13:12:20.954Z,97840.56
2019-03-04T13:14:49.890Z,97847.38
2019-03-04T13:17:18.765Z,97848.50
2019-03-04T13:19:47.697Z,97823.98
2019-03-04T13:22:16.849Z,97818.68
2019-03-04T13:24:45.717Z,97816.88
2019-03-04T13:27:23.466Z,97826.01
2019-03-04T13:29:45.477Z,97821.90
2019-03-04T13:32:14.394Z,97824.84
2019-03-04T13:34:43.454Z,97822.11
2019-03-04T13:37:12.432Z,97838.33
2019-03-04T13:39:41.464Z,97853.27
2019-03-04T13:42:10.593Z,97870.81
2019-03-04T13:44:39.605Z,97879.36
2019-03-04T13:47:08.579Z,97880.83
2019-03-04T13:49:37.623Z,97890.74
2019-03-04T13:52:06.687Z,97883.55
2019-03-04T13:54:35.611Z,97894.62
2019-03-04T13:57:06.413Z,97892.88
2019-03-04T13:59:35.274Z,97907.16
2019-03-04T14:02:05.505Z,97911.56
2019-03-04T14:04:34.296Z,97900.45
2019-03-04T14:07:03.475Z,97916.20
2019-03-04T14:09:32.337Z,97922.35
2019-03-04T14:12:01.275Z,97922.69
2019-03-04T14:14:30.189Z,97934.41
2019-03-04T14:16:59.058Z,97939.33
2019-03-04T14:19:28.069Z,97943.09
2019-03-04T14:21:57.319Z,97950.30
2019-03-04T14:24:26.226Z,97956.24
2019-03-04T14:26:55.033Z,97949.89
2019-03-04T14:29:23.906Z,97947.52
2019-03-04T14:31:52.853Z,97950.44
2019-03-04T14:34:21.841Z,97954.04
2019-03-04T14:36:50.885Z,97960.31
2019-03-04T14:39:19.865Z,97967.55
2019-03-04T14:41:48.891Z,97967.82
2019-03-04T14:44:17.953Z,97975.42
2019-03-04T14:46:46.950Z,97976.03
2019-03-04T14:49:15.949Z,97993.37
2019-03-04T14:51:44.948Z,97987.87
2019-03-04T14:54:13.910Z,98001.38
2019-03-04T14:56:42.937Z,98001.98
2019-03-04T14:59:11.862Z,98010.91
2019-03-04T15:01:40.855Z,98007.20
2019-03-04T15:04:09.731Z,98010.45
2019-03-04T15:06:38.541Z,98018.39
2019-03-04T15:09:10.431Z,98007.13
2019-03-04T15:11:39.232Z,98013.36
2019-03-04T15:14:08.473Z,98020.22
2019-03-04T15:16:37.275Z,98030.30
2019-03-04T15:19:06.621Z,98032.34
2019-03-04T15:21:35.661Z,98044.25
2019-03-04T15:24:04.633Z,98045.57
2019-03-04T15:26:41.016Z,98059.28
2019-03-04T15:29:04.702Z,98067.22
2019-03-04T15:31:33.649Z,98076.27
2019-03-04T15:34:02.763Z,98073.89
2019-03-04T15:36:31.675Z,98081.48
2019-03-04T15:39:00.720Z,98091.69
2019-03-04T15:41:29.684Z,98094.84
2019-03-04T15:43:58.690Z,98091.48
2019-03-04T15:49:15.686Z,98104.49
2019-03-04T15:51:44.705Z,98094.98
2019-03-04T15:54:13.697Z,98114.36
2019-03-04T15:56:42.765Z,98117.73
2019-03-04T15:59:11.604Z,98117.39
2019-03-04T16:01:40.423Z,98117.73
2019-03-04T16:04:09.672Z,98117.73
2019-03-04T16:06:38.906Z,98122.21
2019-03-04T16:09:14.289Z,98130.49
2019-03-04T16:11:43.297Z,98139.75
2019-03-04T16:14:12.496Z,98156.95
2019-03-04T16:16:41.521Z,98140.98
2019-03-04T16:19:10.598Z,98160.45
2019-03-04T16:21:39.717Z,98144.58
2019-03-04T16:24:08.897Z,98156.27
2019-03-04T16:26:37.908Z,98156.40
2019-03-04T16:29:06.869Z,98158.32
2019-03-04T16:31:54.998Z,98169.75
2019-03-04T16:34:23.956Z,98179.14
2019-03-04T16:36:52.931Z,98182.52
2019-03-04T16:39:22.029Z,98181.31
2019-03-04T16:41:51.054Z,98187.23
2019-03-04T16:44:19.884Z,98203.58
2019-03-04T16:46:49.101Z,98207.80
2019-03-04T16:49:18.002Z,98212.87
2019-03-04T16:51:52.975Z,98226.69
2019-03-04T16:54:22.141Z,98240.89
2019-03-04T16:56:51.006Z,98230.05
2019-03-04T16:59:19.985Z,98229.70
2019-03-04T17:01:49.002Z,98228.16
2019-03-04T17:04:17.941Z,98249.91
2019-03-04T17:06:47.042Z,98251.83
2019-03-04T17:09:18.083Z,98259.07
2019-03-04T17:11:47.116Z,98259.66
2019-03-04T17:14:16.044Z,98263.28
2019-03-04T17:16:44.993Z,98268.69
2019-03-04T17:19:13.790Z,98278.42
2019-03-04T17:21:42.793Z,98284.80
2019-03-04T17:24:11.699Z,98295.97
2019-03-04T17:26:41.090Z,98299.71
2019-03-04T17:29:10.072Z,98300.65
2019-03-04T17:31:38.858Z,98302.59
2019-03-04T17:34:08.060Z,98317.26
2019-03-04T17:36:36.892Z,98323.98
2019-03-04T17:39:06.907Z,98325.05
2019-03-04T17:41:36.264Z,98334.80
2019-03-04T17:44:06.739Z,98342.85
2019-03-04T17:46:35.689Z,98345.62
2019-03-04T17:49:05.041Z,98346.20
2019-03-04T17:51:34.285Z,98361.33
2019-03-04T17:54:03.343Z,98367.59
2019-03-04T17:56:32.322Z,98373.43
2019-03-04T17:59:01.349Z,98374.05
2019-03-04T18:01:30.322Z,98390.84
2019-03-04T18:03:59.331Z,98387.50
2019-03-04T18:06:28.330Z,98402.04
2019-03-04T18:08:57.257Z,98392.41
2019-03-04T18:11:26.147Z,98404.41
2019-03-04T18:13:55.068Z,98419.06
2019-03-04T18:16:23.949Z,98417.05
2019-03-04T18:18:53.104Z,98412.34
2019-03-04T18:21:22.174Z,98428.31
2019-03-04T18:23:51.218Z,98434.10
2019-03-04T18:26:23.914Z,98450.54
2019-03-04T18:29:37.141Z,98441.41
2019-03-04T18:32:28.378Z,98455.09
2019-03-04T18:35:24.459Z,98450.53
2019-03-04T18:38:04.515Z,98448.47
2019-03-04T18:41:09.665Z,98463.98
2019-03-04T18:44:07.954Z,98475.98
2019-03-04T18:46:53.036Z,98469.48
2019-03-04T18:49:22.034Z,98467.55
2019-03-04T18:51:51.067Z,98481.22
2019-03-04T18:54:20.679Z,98493.22
2019-03-04T18:56:49.669Z,98488.55
2019-03-04T18:59:18.657Z,98495.16
2019-03-04T19:01:47.684Z,98497.06
2019-03-04T19:04:16.543Z,98497.52
2019-03-04T19:06:45.432Z,98507.73
2019-03-04T19:09:14.519Z,98502.57
2019-03-04T19:11:43.624Z,98505.79
2019-03-04T19:14:12.673Z,98509.40
2019-03-04T19:16:41.665Z,98513.47
2019-03-04T19:19:10.712Z,98511.41
2019-03-04T19:21:39.742Z,98524.73
2019-03-04T19:24:08.690Z,98531.83
2019-03-04T19:26:37.942Z,98525.80
2019-03-04T19:29:06.769Z,98541.65
2019-03-04T19:31:35.722Z,98529.52
2019-03-04T19:34:04.899Z,98526.14
2019-03-04T19:36:33.904Z,98538.98
2019-03-04T19:39:04.767Z,98536.81
2019-03-04T19:41:33.855Z,98544.38
2019-03-04T19:44:03.506Z,98551.09
2019-03-04T19:46:32.397Z,98545.08
2019-03-04T19:49:01.371Z,98546.03
2019-03-04T19:51:30.356Z,98558.38
2019-03-04T19:53:59.344Z,98550.22
2019-03-04T19:56:28.297Z,98554.18
2019-03-04T19:58:57.328Z,98561.71
2019-03-04T20:01:26.456Z,98556.55
2019-03-04T20:03:55.470Z,98556.19
2019-03-04T20:06:24.429Z,98559.30
2019-03-04T20:08:53.450Z,98567.71
2019-03-04T20:11:22.424Z,98569.96
2019-03-04T20:13:51.455Z,98570.56
2019-03-04T20:16:41.055Z,98576.78
2019-03-04T20:19:10.102Z,98583.87
2019-03-04T20:21:39.082Z,98577.85
2019-03-04T20:24:08.113Z,98585.03
2019-03-04T20:26:37.090Z,98589.38
2019-03-04T20:29:06.065Z,98585.99
2019-03-04T20:31:35.953Z,98589.20
2019-03-04T20:34:24.125Z,98599.30
2019-03-04T20:36:53.044Z,98596.30
2019-03-04T20:39:41.156Z,98604.44
2019-03-04T20:42:10.144Z,98606.97
2019-03-04T20:44:39.144Z,98605.48
2019-03-04T20:47:08.118Z,98619.17
2019-03-04T20:49:37.191Z,98618.67
2019-03-04T20:52:06.161Z,98616.14
2019-03-04T20:54:36.058Z,98624.45
2019-03-04T20:57:04.897Z,98614.00
2019-03-04T20:59:54.494Z,98622.48
2019-03-04T21:02:23.324Z,98631.73
2019-03-04T21:04:52.325Z,98628.45
2019-03-04T21:07:21.253Z,98624.98
2019-03-04T21:09:50.262Z,98629.41
2019-03-04T21:12:19.335Z,98627.23
2019-03-04T21:14:48.444Z,98641.39
2019-03-04T21:17:17.390Z,98638.75
2019-03-04T21:19:46.277Z,98641.75
2019-03-04T21:22:15.308Z,98651.59
2019-03-04T21:24:44.353Z,98660.82
2019-03-04T21:27:13.288Z,98645.45
2019-03-04T21:30:23.181Z,98645.67
2019-03-04T21:33:32.090Z,98655.27
2019-03-04T21:36:58.214Z,98665.67
2019-03-04T21:39:31.692Z,98657.39
2019-03-04T21:42:37.652Z,98661.45
2019-03-04T21:45:41.513Z,98665.88
2019-03-04T21:48:17.692Z,98671.27
2019-03-04T21:50:57.452Z,98685.88
2019-03-04T21:53:31.599Z,98682.28
2019-03-04T21:56:29.730Z,98676.17
2019-03-04T21:58:58.653Z,98688.62
2019-03-04T22:01:31.559Z,98687.30
2019-03-04T22:04:01.004Z,98692.58
2019-03-04T22:06:29.942Z,98689.58
2019-03-04T22:08:58.969Z,98673.00
2019-03-04T22:11:27.812Z,98682.13
2019-03-04T22:13:56.719Z,98680.91
2019-03-04T22:16:25.712Z,98681.02
2019-03-04T22:18:54.662Z,98675.84
2019-03-04T22:21:23.557Z,98680.87
2019-03-04T22:23:52.680Z,98689.14
2019-03-04T22:26:21.685Z,98683.97
2019-03-04T22:28:50.767Z,98680.02
2019-03-04T22:31:19.706Z,98684.44
2019-03-04T22:33:48.795Z,98683.97
2019-03-04T22:36:17.705Z,98677.94
2019-03-04T22:38:46.668Z,98679.86
2019-03-04T22:41:15.449Z,98678.91
2019-03-04T22:43:44.556Z,98680.79
2019-03-04T22:46:13.474Z,98687.38
2019-03-04T22:48:42.474Z,98688.34
2019-03-04T22:51:11.486Z,98688.34
2019-03-04T22:53:40.396Z,98685.45
2019-03-04T22:56:09.515Z,98680.17
2019-03-04T22:58:38.593Z,98687.23
2019-03-04T23:01:48.177Z,98689.01
2019-03-04T23:04:28.854Z,98688.55
2019-03-04T23:07:42.421Z,98685.16
2019-03-04T23:10:46.876Z,98680.84
2019-03-04T23:13:44.133Z,98676.89
2019-03-04T23:16:15.979Z,98680.09
2019-03-04T23:18:44.962Z,98680.55
2019-03-04T23:21:13.933Z,98693.27
2019-03-04T23:23:43.004Z,98695.91
2019-03-04T23:26:11.965Z,98696.77
2019-03-04T23:28:41.117Z,98695.45
2019-03-04T23:31:10.092Z,98702.11
2019-03-04T23:33:38.957Z,98697.30
2019-03-04T23:36:07.809Z,98701.36
2019-03-04T23:38:37.164Z,98705.31
2019-03-04T23:41:06.189Z,98707.23
2019-03-04T23:43:35.212Z,98705.91
2019-03-04T23:46:04.479Z,98701.46
2019-03-04T23:48:33.347Z,98701.95
2019-03-04T23:51:02.278Z,98685.84
2019-03-04T23:53:31.451Z,98702.98
2019-03-04T23:56:00.195Z,98705.63
2019-03-04T23:58:29.114Z,98706.13
